createdAt,value
2023-05-19T00:01:11.646Z,76.98
2023-05-19T00:03:55.841Z,76.19
2023-05-19T00:06:32.742Z,76.96
2023-05-19T00:09:12.083Z,76.31
2023-05-19T00:11:47.305Z,77.17
2023-05-19T00:14:22.004Z,77.47
2023-05-19T00:16:53.857Z,78.10
2023-05-19T00:19:26.855Z,78.27
2023-05-19T00:22:00.135Z,77.58
2023-05-19T00:24:33.182Z,78.23
2023-05-19T00:27:05.640Z,77.69
2023-05-19T00:29:37.318Z,78.12
2023-05-19T00:32:08.522Z,77.93
2023-05-19T00:34:42.057Z,78.30
2023-05-19T00:37:12.780Z,78.54
2023-05-19T00:39:46.591Z,78.71
2023-05-19T00:42:19.507Z,78.76
2023-05-19T00:44:51.208Z,78.57
2023-05-19T00:47:22.366Z,78.84
2023-05-19T00:49:54.152Z,79.21
2023-05-19T00:52:27.467Z,79.46
2023-05-19T00:54:59.505Z,79.36
2023-05-19T00:57:36.456Z,79.96
2023-05-19T01:00:07.558Z,79.80
2023-05-19T01:02:41.414Z,79.95
2023-05-19T01:05:18.177Z,80.04
2023-05-19T01:07:56.359Z,79.84
2023-05-19T01:10:26.747Z,79.75
2023-05-19T01:12:58.330Z,79.73
2023-05-19T01:15:29.461Z,79.82
2023-05-19T01:18:16.709Z,80.49
2023-05-19T01:21:18.187Z,80.31
2023-05-19T01:23:59.372Z,80.25
2023-05-19T01:26:41.858Z,79.81
2023-05-19T01:29:37.437Z,80.24
2023-05-19T01:32:13.384Z,79.95
2023-05-19T01:34:48.420Z,80.13
2023-05-19T01:37:22.612Z,80.09
2023-05-19T01:39:54.757Z,79.88
2023-05-19T01:42:28.900Z,80.07
2023-05-19T01:45:04.138Z,80.26
2023-05-19T01:47:40.705Z,80.86
2023-05-19T01:50:13.746Z,80.12
2023-05-19T01:52:44.248Z,79.93
2023-05-19T01:55:14.402Z,79.85
2023-05-19T01:58:06.564Z,80.32
2023-05-19T02:00:56.098Z,80.56
2023-05-19T02:03:35.251Z,81.04
2023-05-19T02:06:56.855Z,80.27
2023-05-19T02:09:55.998Z,80.37
2023-05-19T02:12:35.041Z,80.41
2023-05-19T02:15:12.825Z,80.66
2023-05-19T02:17:49.769Z,80.49
2023-05-19T02:20:21.402Z,80.22
2023-05-19T02:22:53.378Z,80.54
2023-05-19T02:25:24.842Z,80.19
2023-05-19T02:27:56.891Z,80.50
2023-05-19T02:30:27.937Z,80.09
2023-05-19T02:32:59.263Z,80.34
2023-05-19T02:35:30.721Z,80.16
2023-05-19T02:38:01.538Z,79.76
2023-05-19T02:40:31.972Z,79.83
2023-05-19T02:43:04.319Z,79.96
2023-05-19T02:45:36.706Z,79.78
2023-05-19T02:48:07.360Z,79.95
2023-05-19T02:50:38.649Z,79.91
2023-05-19T02:53:09.647Z,79.97
2023-05-19T02:55:40.863Z,79.77
2023-05-19T02:58:12.555Z,79.57
2023-05-19T03:00:43.540Z,79.82
2023-05-19T03:03:16.728Z,79.58
2023-05-19T03:05:48.569Z,79.43
2023-05-19T03:08:19.980Z,79.10
2023-05-19T03:10:51.241Z,79.75
2023-05-19T03:13:22.398Z,79.44
2023-05-19T03:15:54.750Z,78.92
2023-05-19T03:18:26.838Z,79.49
2023-05-19T03:20:58.692Z,79.70
2023-05-19T03:23:30.790Z,78.88
2023-05-19T03:26:01.082Z,78.55
2023-05-19T03:28:31.012Z,79.06
2023-05-19T03:31:01.544Z,79.17
2023-05-19T03:33:37.680Z,79.97
2023-05-19T03:36:09.477Z,79.89
2023-05-19T03:38:42.523Z,79.53
2023-05-19T03:41:13.800Z,79.44
2023-05-19T03:43:43.897Z,78.95
2023-05-19T03:46:15.147Z,78.05
2023-05-19T03:49:21.566Z,77.56
2023-05-19T03:52:00.960Z,76.95
2023-05-19T03:54:54.237Z,76.31
2023-05-19T03:57:24.673Z,75.90
2023-05-19T03:59:57.859Z,75.83
2023-05-19T04:02:30.292Z,75.54
2023-05-19T04:05:01.379Z,75.21
2023-05-19T04:07:32.253Z,74.95
2023-05-19T04:10:02.563Z,74.76
2023-05-19T04:12:33.837Z,74.56
2023-05-19T04:15:04.995Z,74.25
2023-05-19T04:17:35.793Z,73.98
2023-05-19T04:20:08.358Z,73.41
2023-05-19T04:22:39.538Z,73.24
2023-05-19T04:25:11.039Z,73.13
2023-05-19T04:27:44.817Z,73.21
2023-05-19T04:34:38.936Z,73.22
2023-05-19T04:37:14.208Z,73.42
2023-05-19T04:39:49.154Z,73.12
2023-05-19T04:42:21.107Z,72.94
2023-05-19T04:44:53.855Z,72.92
2023-05-19T04:47:30.221Z,73.03
2023-05-19T04:50:03.699Z,73.08
2023-05-19T04:52:34.121Z,72.49
2023-05-19T04:55:06.725Z,71.90
2023-05-19T04:57:38.963Z,71.98
2023-05-19T05:00:14.973Z,72.11
2023-05-19T05:03:00.365Z,72.39
2023-05-19T05:05:34.519Z,72.32
2023-05-19T05:08:05.279Z,72.59
2023-05-19T05:10:41.226Z,72.71
2023-05-19T05:13:12.906Z,72.78
2023-05-19T05:15:43.285Z,73.22
2023-05-19T05:18:14.119Z,72.95
2023-05-19T05:20:51.007Z,73.18
2023-05-19T05:23:22.347Z,73.62
2023-05-19T05:25:55.142Z,73.62
2023-05-19T05:28:26.455Z,73.63
2023-05-19T05:30:59.677Z,73.75
2023-05-19T05:33:30.950Z,73.50
2023-05-19T05:36:02.658Z,73.66
2023-05-19T05:38:34.240Z,73.77
2023-05-19T05:41:04.915Z,73.74
2023-05-19T05:43:37.137Z,73.77
2023-05-19T05:46:07.858Z,73.46
2023-05-19T05:48:38.580Z,73.06
2023-05-19T05:51:10.802Z,72.67
2023-05-19T05:53:46.912Z,72.70
2023-05-19T05:56:19.543Z,72.14
2023-05-19T05:58:53.765Z,72.13
2023-05-19T06:01:25.383Z,71.89
2023-05-19T06:03:57.969Z,71.36
2023-05-19T06:06:29.049Z,71.16
2023-05-19T06:09:00.187Z,70.97
2023-05-19T06:11:32.051Z,71.04
2023-05-19T06:14:03.800Z,71.39
2023-05-19T06:16:53.213Z,71.38
2023-05-19T06:19:26.510Z,71.12
2023-05-19T06:21:57.046Z,71.29
2023-05-19T06:24:29.695Z,71.67
2023-05-19T06:27:01.068Z,71.81
2023-05-19T06:29:32.360Z,71.75
2023-05-19T06:32:06.910Z,71.87
2023-05-19T06:34:40.354Z,71.45
2023-05-19T06:37:11.450Z,72.12
2023-05-19T06:39:43.385Z,72.06
2023-05-19T06:42:13.616Z,70.96
2023-05-19T06:45:13.032Z,70.47
2023-05-19T06:47:44.700Z,70.69
2023-05-19T06:50:18.158Z,70.68
2023-05-19T06:52:51.480Z,71.03
2023-05-19T06:55:21.905Z,71.49
2023-05-19T06:57:54.303Z,71.94
2023-05-19T07:00:25.354Z,71.13
2023-05-19T07:02:57.407Z,71.02
2023-05-19T07:05:27.735Z,71.31
2023-05-19T07:08:01.564Z,70.98
2023-05-19T07:10:32.585Z,71.39
2023-05-19T07:13:02.914Z,71.03
2023-05-19T07:15:37.208Z,71.37
2023-05-19T07:18:08.911Z,71.93
2023-05-19T07:20:40.094Z,71.61
2023-05-19T07:23:11.292Z,71.56
2023-05-19T07:25:42.024Z,72.23
2023-05-19T07:28:18.203Z,72.24
2023-05-19T07:30:49.553Z,72.50
2023-05-19T07:33:19.914Z,72.87
2023-05-19T07:35:50.437Z,72.51
2023-05-19T07:38:21.692Z,71.96
2023-05-19T07:40:53.004Z,72.00
2023-05-19T07:43:24.550Z,70.68
2023-05-19T07:45:55.855Z,70.44
2023-05-19T07:48:27.300Z,70.26
2023-05-19T07:50:57.774Z,70.09
2023-05-19T07:53:33.136Z,70.71
2023-05-19T07:56:04.094Z,70.46
2023-05-19T07:58:35.050Z,70.30
2023-05-19T08:01:06.146Z,71.59
2023-05-19T08:03:37.326Z,71.89
2023-05-19T08:06:08.525Z,72.19
2023-05-19T08:08:39.612Z,71.90
2023-05-19T08:11:10.282Z,72.46
2023-05-19T08:13:41.327Z,72.21
2023-05-19T08:16:11.722Z,72.37
2023-05-19T08:18:42.577Z,72.87
2023-05-19T08:21:13.186Z,72.74
2023-05-19T08:23:44.540Z,73.01
2023-05-19T08:26:15.748Z,73.30
2023-05-19T08:28:46.595Z,73.33
2023-05-19T08:31:19.728Z,73.34
2023-05-19T08:33:51.179Z,73.17
2023-05-19T08:36:22.273Z,72.99
2023-05-19T08:41:21.112Z,72.91
2023-05-19T08:43:52.547Z,72.92
2023-05-19T08:46:27.011Z,72.97
2023-05-19T08:49:03.870Z,73.01
2023-05-19T08:52:07.552Z,72.63
2023-05-19T08:54:59.077Z,72.66
2023-05-19T08:57:30.979Z,72.21
2023-05-19T09:00:02.782Z,71.84
2023-05-19T09:02:33.427Z,71.63
2023-05-19T09:05:05.177Z,71.39
2023-05-19T09:07:39.695Z,71.65
2023-05-19T09:10:10.941Z,71.02
2023-05-19T09:12:42.215Z,70.50
2023-05-19T09:15:14.616Z,70.60
2023-05-19T09:17:47.058Z,70.56
2023-05-19T09:20:19.872Z,71.19
2023-05-19T09:22:50.275Z,71.25
2023-05-19T09:25:30.526Z,70.77
2023-05-19T09:28:01.482Z,70.70
2023-05-19T09:30:31.585Z,70.24
2023-05-19T09:33:03.128Z,70.29
2023-05-19T09:35:34.308Z,70.13
2023-05-19T09:38:04.849Z,70.74
2023-05-19T09:40:36.663Z,70.22
2023-05-19T09:43:11.355Z,69.84
2023-05-19T09:45:42.762Z,69.82
2023-05-19T09:48:14.877Z,69.99
2023-05-19T09:50:47.062Z,69.91
2023-05-19T09:53:21.275Z,70.00
2023-05-19T09:55:54.167Z,70.15
2023-05-19T09:58:26.413Z,69.67
2023-05-19T10:00:59.129Z,69.71
2023-05-19T10:03:30.480Z,69.05
2023-05-19T10:06:09.749Z,69.01
2023-05-19T10:08:41.025Z,68.48
2023-05-19T10:11:12.831Z,68.09
2023-05-19T10:13:45.563Z,67.90
2023-05-19T10:16:19.055Z,68.34
2023-05-19T10:18:51.651Z,68.46
2023-05-19T10:21:23.144Z,68.59
2023-05-19T10:23:54.154Z,68.99
2023-05-19T10:26:26.909Z,69.60
2023-05-19T10:28:58.177Z,69.29
2023-05-19T10:31:29.541Z,68.22
2023-05-19T10:34:24.295Z,66.99
2023-05-19T10:37:07.100Z,62.91
2023-05-19T10:39:39.099Z,62.98
2023-05-19T10:42:28.104Z,62.77
2023-05-19T10:45:22.382Z,59.07
2023-05-19T10:47:54.650Z,62.15
2023-05-19T10:50:26.287Z,64.17
2023-05-19T10:52:58.357Z,64.69
2023-05-19T10:55:49.324Z,65.48
2023-05-19T10:58:41.854Z,67.04
2023-05-19T11:01:17.239Z,65.51
2023-05-19T11:03:59.517Z,66.09
2023-05-19T11:06:40.897Z,61.81
2023-05-19T11:09:12.346Z,60.54
2023-05-19T11:11:54.994Z,65.12
2023-05-19T11:14:28.768Z,62.35
2023-05-19T11:17:00.652Z,55.01
2023-05-19T11:19:37.359Z,55.79
2023-05-19T11:22:16.409Z,59.36
2023-05-19T11:24:51.429Z,61.63
2023-05-19T11:27:36.041Z,62.31
2023-05-19T11:30:22.112Z,63.00
2023-05-19T11:32:53.526Z,63.13
2023-05-19T11:35:26.503Z,63.44
2023-05-19T11:37:58.018Z,64.20
2023-05-19T11:40:29.698Z,64.78
2023-05-19T11:43:00.920Z,64.17
2023-05-19T11:45:34.800Z,65.45
2023-05-19T11:48:06.464Z,64.58
2023-05-19T11:50:39.518Z,64.03
2023-05-19T11:53:19.171Z,64.38
2023-05-19T11:55:52.029Z,64.66
2023-05-19T11:58:29.237Z,64.83
2023-05-19T12:01:00.324Z,64.83
2023-05-19T12:03:35.319Z,62.80
2023-05-19T12:06:08.734Z,62.81
2023-05-19T12:08:40.938Z,62.12
2023-05-19T12:11:12.182Z,62.40
2023-05-19T12:13:43.913Z,62.42
2023-05-19T12:16:15.034Z,61.56
2023-05-19T12:18:46.133Z,59.91
2023-05-19T12:21:18.311Z,60.72
2023-05-19T12:23:49.619Z,60.06
2023-05-19T12:26:22.258Z,60.85
2023-05-19T12:28:54.982Z,60.17
2023-05-19T12:31:26.183Z,59.60
2023-05-19T12:33:58.725Z,60.56
2023-05-19T12:36:31.847Z,59.58
2023-05-19T12:39:27.146Z,60.51
2023-05-19T12:42:06.224Z,60.07
2023-05-19T12:44:41.765Z,59.48
2023-05-19T12:47:12.582Z,61.13
2023-05-19T12:50:02.880Z,59.95
2023-05-19T12:52:37.496Z,60.68
2023-05-19T12:55:14.637Z,59.53
2023-05-19T12:57:53.830Z,60.24
2023-05-19T13:00:34.739Z,60.13
2023-05-19T13:03:08.405Z,59.27
2023-05-19T13:05:46.028Z,59.94
2023-05-19T13:08:23.137Z,60.50
2023-05-19T13:10:53.585Z,61.01
2023-05-19T13:13:24.426Z,60.74
2023-05-19T13:15:56.161Z,61.14
2023-05-19T13:18:30.471Z,60.56
2023-05-19T13:21:02.885Z,60.48
2023-05-19T13:23:34.498Z,60.17
2023-05-19T13:26:07.783Z,59.71
2023-05-19T13:28:38.930Z,60.00
2023-05-19T13:31:09.674Z,59.95
2023-05-19T13:33:41.622Z,59.29
2023-05-19T13:36:12.416Z,59.91
2023-05-19T13:38:43.676Z,59.15
2023-05-19T13:41:16.244Z,60.28
2023-05-19T13:43:47.833Z,60.40
2023-05-19T13:46:22.165Z,59.25
2023-05-19T13:48:57.760Z,59.29
2023-05-19T13:51:28.565Z,59.24
2023-05-19T13:53:59.741Z,58.99
2023-05-19T13:56:30.635Z,60.28
2023-05-19T13:59:02.883Z,58.97
2023-05-19T14:01:34.924Z,60.11
2023-05-19T14:04:07.146Z,59.29
2023-05-19T14:06:39.302Z,61.36
2023-05-19T14:09:10.949Z,61.87
2023-05-19T14:11:42.014Z,61.19
2023-05-19T14:14:13.243Z,60.73
2023-05-19T14:16:44.597Z,59.80
2023-05-19T14:19:15.555Z,59.05
2023-05-19T14:21:45.950Z,59.08
2023-05-19T14:24:17.130Z,59.41
2023-05-19T14:26:48.490Z,59.63
2023-05-19T14:29:19.843Z,59.84
2023-05-19T14:31:50.393Z,59.14
2023-05-19T14:34:24.043Z,58.15
2023-05-19T14:36:55.805Z,58.99
2023-05-19T14:39:26.785Z,57.94
2023-05-19T14:41:58.617Z,59.08
2023-05-19T14:44:35.080Z,58.54
2023-05-19T14:47:06.720Z,58.37
2023-05-19T14:49:37.038Z,59.19
2023-05-19T14:52:08.670Z,58.50
2023-05-19T14:54:39.840Z,58.61
2023-05-19T14:57:10.680Z,58.48
2023-05-19T14:59:41.162Z,58.29
2023-05-19T15:02:14.055Z,57.80
2023-05-19T15:04:45.445Z,57.52
2023-05-19T15:07:16.650Z,57.76
2023-05-19T15:09:47.651Z,57.56
2023-05-19T15:12:19.133Z,56.98
2023-05-19T15:14:51.247Z,58.52
2023-05-19T15:17:23.649Z,60.06
2023-05-19T15:19:54.761Z,60.00
2023-05-19T15:22:26.258Z,60.28
2023-05-19T15:24:56.755Z,60.53
2023-05-19T15:27:27.665Z,59.00
2023-05-19T15:29:58.810Z,61.24
2023-05-19T15:32:28.975Z,60.98
2023-05-19T15:35:00.675Z,61.25
2023-05-19T15:37:30.952Z,60.83
2023-05-19T15:40:01.955Z,60.76
2023-05-19T15:42:33.217Z,60.97
2023-05-19T15:45:03.709Z,61.27
2023-05-19T15:47:34.627Z,59.40
2023-05-19T15:50:06.499Z,59.55
2023-05-19T15:52:41.536Z,60.22
2023-05-19T15:55:13.789Z,60.63
2023-05-19T15:57:45.356Z,60.55
2023-05-19T16:00:17.107Z,59.99
2023-05-19T16:02:48.227Z,60.93
2023-05-19T16:05:19.147Z,61.11
2023-05-19T16:07:50.440Z,61.15
2023-05-19T16:10:20.902Z,62.06
2023-05-19T16:12:51.204Z,60.70
2023-05-19T16:15:22.029Z,60.65
2023-05-19T16:17:53.322Z,60.67
2023-05-19T16:20:28.890Z,61.27
2023-05-19T16:23:01.331Z,61.50
2023-05-19T16:25:33.063Z,60.88
2023-05-19T16:28:04.589Z,62.90
2023-05-19T16:30:36.367Z,63.43
2023-05-19T16:33:08.698Z,62.36
2023-05-19T16:35:40.315Z,61.23
2023-05-19T16:38:11.221Z,62.88
2023-05-19T16:40:42.170Z,62.90
2023-05-19T16:43:13.825Z,63.96
2023-05-19T16:45:44.089Z,62.37
2023-05-19T16:48:15.185Z,63.44
2023-05-19T16:50:45.541Z,64.79
2023-05-19T16:53:15.592Z,64.34
2023-05-19T16:55:46.568Z,60.87
2023-05-19T16:58:23.812Z,60.82
2023-05-19T17:00:54.574Z,60.71
2023-05-19T17:03:25.241Z,60.29
2023-05-19T17:05:55.898Z,62.96
2023-05-19T17:08:26.295Z,63.69
2023-05-19T17:10:58.025Z,62.28
2023-05-19T17:13:31.652Z,61.97
2023-05-19T17:16:02.514Z,62.36
2023-05-19T17:18:33.128Z,62.16
2023-05-19T17:21:05.297Z,62.90
2023-05-19T17:23:37.507Z,62.86
2023-05-19T17:26:08.897Z,63.98
2023-05-19T17:28:40.385Z,64.77
2023-05-19T17:31:18.606Z,65.66
2023-05-19T17:33:49.825Z,64.42
2023-05-19T17:36:20.740Z,65.05
2023-05-19T17:38:51.192Z,65.48
2023-05-19T17:41:21.395Z,64.35
2023-05-19T17:43:53.003Z,64.11
2023-05-19T17:46:24.272Z,62.38
2023-05-19T17:48:54.790Z,62.96
2023-05-19T17:51:25.992Z,62.68
2023-05-19T17:53:57.898Z,63.02
2023-05-19T17:56:31.681Z,62.44
2023-05-19T17:59:03.689Z,63.55
2023-05-19T18:01:35.706Z,63.54
2023-05-19T18:07:49.902Z,65.31
2023-05-19T18:10:21.628Z,63.07
2023-05-19T18:12:53.422Z,63.67
2023-05-19T18:15:24.603Z,63.69
2023-05-19T18:17:55.782Z,64.00
2023-05-19T18:20:27.852Z,62.64
2023-05-19T18:22:59.189Z,62.57
2023-05-19T18:25:31.401Z,60.74
2023-05-19T18:28:03.194Z,60.75
2023-05-19T18:30:35.554Z,61.54
2023-05-19T18:33:07.317Z,60.99
2023-05-19T18:35:38.542Z,60.10
2023-05-19T18:38:09.894Z,59.64
2023-05-19T18:40:45.117Z,60.29
2023-05-19T18:43:15.736Z,60.22
2023-05-19T18:45:49.630Z,61.70
2023-05-19T18:48:21.157Z,61.65
2023-05-19T18:50:52.196Z,62.39
2023-05-19T18:53:24.967Z,63.38
2023-05-19T18:55:55.983Z,64.37
2023-05-19T18:58:26.637Z,62.67
2023-05-19T19:00:57.724Z,63.31
2023-05-19T19:03:29.057Z,64.19
2023-05-19T19:06:01.595Z,63.02
2023-05-19T19:08:33.020Z,63.31
2023-05-19T19:11:04.110Z,64.49
2023-05-19T19:13:35.335Z,64.41
2023-05-19T19:16:07.650Z,63.96
2023-05-19T19:18:39.043Z,64.48
2023-05-19T19:21:10.659Z,64.16
2023-05-19T19:23:42.211Z,64.81
2023-05-19T19:26:13.138Z,65.41
2023-05-19T19:28:44.991Z,65.89
2023-05-19T19:31:16.079Z,66.20
2023-05-19T19:33:46.749Z,66.07
2023-05-19T19:36:16.975Z,66.02
2023-05-19T19:38:48.520Z,66.53
2023-05-19T19:41:21.885Z,67.23
2023-05-19T19:43:52.548Z,66.96
2023-05-19T19:46:22.807Z,67.01
2023-05-19T19:48:54.636Z,67.62
2023-05-19T19:51:24.991Z,68.12
2023-05-19T19:53:55.661Z,68.92
2023-05-19T19:56:27.721Z,68.78
2023-05-19T19:59:00.767Z,69.11
2023-05-19T20:01:31.220Z,69.28
2023-05-19T20:04:02.959Z,69.39
2023-05-19T20:06:33.729Z,70.18
2023-05-19T20:09:04.831Z,70.58
2023-05-19T20:11:36.163Z,71.07
2023-05-19T20:14:07.257Z,70.93
2023-05-19T20:16:41.656Z,70.98
2023-05-19T20:19:13.333Z,71.20
2023-05-19T20:21:44.164Z,71.37
2023-05-19T20:24:15.390Z,71.25
2023-05-19T20:26:46.038Z,71.38
2023-05-19T20:29:17.153Z,71.94
2023-05-19T20:31:48.779Z,71.82
2023-05-19T20:34:20.139Z,72.39
2023-05-19T20:36:50.769Z,72.34
2023-05-19T20:39:22.032Z,72.24
2023-05-19T20:41:53.552Z,72.30
2023-05-19T20:44:24.166Z,72.54
2023-05-19T20:47:00.033Z,72.70
2023-05-19T20:49:31.839Z,72.91
2023-05-19T20:52:04.228Z,73.02
2023-05-19T20:54:36.117Z,73.16
2023-05-19T20:57:10.449Z,73.44
2023-05-19T20:59:41.694Z,73.64
2023-05-19T21:02:13.173Z,73.66
2023-05-19T21:04:43.905Z,73.74
2023-05-19T21:07:16.053Z,73.71
2023-05-19T21:09:48.863Z,73.73
2023-05-19T21:12:21.926Z,73.87
2023-05-19T21:14:54.090Z,74.15
2023-05-19T21:17:25.177Z,74.28
2023-05-19T21:20:00.417Z,74.47
2023-05-19T21:22:31.757Z,74.89
2023-05-19T21:25:02.383Z,74.93
2023-05-19T21:27:34.440Z,75.00
2023-05-19T21:30:06.372Z,75.06
2023-05-19T21:32:40.794Z,75.33
2023-05-19T21:35:13.090Z,75.41
2023-05-19T21:37:48.352Z,75.70
2023-05-19T21:40:19.006Z,75.43
2023-05-19T21:42:49.638Z,75.73
2023-05-19T21:45:21.329Z,75.55
2023-05-19T21:47:52.121Z,75.10
2023-05-19T21:50:22.694Z,75.08
2023-05-19T21:52:53.848Z,75.01
2023-05-19T21:55:25.116Z,75.52
2023-05-19T21:57:57.219Z,75.27
2023-05-19T22:00:27.816Z,74.28
2023-05-19T22:03:00.423Z,74.78
2023-05-19T22:05:36.885Z,75.09
2023-05-19T22:08:08.009Z,75.05
2023-05-19T22:10:40.815Z,74.48
2023-05-19T22:13:12.015Z,74.60
2023-05-19T22:15:45.390Z,74.56
2023-05-19T22:18:16.250Z,74.74
2023-05-19T22:20:50.611Z,74.86
2023-05-19T22:23:26.501Z,74.66
2023-05-19T22:25:58.646Z,75.25
2023-05-19T22:28:29.451Z,75.59
2023-05-19T22:31:00.070Z,75.33
2023-05-19T22:33:32.092Z,75.31
2023-05-19T22:36:03.701Z,75.12
2023-05-19T22:38:35.856Z,74.93
2023-05-19T22:41:07.744Z,75.46
2023-05-19T22:43:38.998Z,76.15
2023-05-19T22:46:10.756Z,76.36
2023-05-19T22:48:43.625Z,76.55
2023-05-19T22:51:17.583Z,76.94
2023-05-19T22:53:50.408Z,76.23
2023-05-19T22:56:20.692Z,76.97
2023-05-19T22:58:51.264Z,77.11
2023-05-19T23:01:22.567Z,77.49
2023-05-19T23:03:54.247Z,77.31
2023-05-19T23:06:28.185Z,77.46
2023-05-19T23:09:04.338Z,76.97
2023-05-19T23:11:37.843Z,77.65
2023-05-19T23:14:10.324Z,76.97
2023-05-19T23:16:42.703Z,77.57
2023-05-19T23:19:16.360Z,77.90
2023-05-19T23:21:47.883Z,78.17
2023-05-19T23:24:18.718Z,77.00
2023-05-19T23:26:52.416Z,77.53
2023-05-19T23:29:23.305Z,77.86
2023-05-19T23:31:55.526Z,77.96
2023-05-19T23:34:27.898Z,77.73
2023-05-19T23:36:59.023Z,77.45
2023-05-19T23:39:30.154Z,77.90
2023-05-19T23:42:03.997Z,78.49
2023-05-19T23:44:39.520Z,78.42
2023-05-19T23:47:19.814Z,78.87
2023-05-19T23:49:51.308Z,79.00
2023-05-19T23:52:23.716Z,78.76
2023-05-19T23:54:55.633Z,79.28
2023-05-19T23:57:28.681Z,79.36
2023-05-19T23:59:59.316Z,79.40
